This is the latest recevied weather packets stored in our database for station/object SQ7RAF-15. If no packets are shown the sender has not sent any weather packets the latest 1 day(s).
| Time | Temp. | Humidity | Pressure | Rain* | Wind** | Luminosity | Snow |
|---|---|---|---|---|---|---|---|
| 1778074248 | 23.89° C | 50% | 1005.1 hPa | 0 mm | - | 251 W/m² | - |
| 1778070648 | 23.89° C | 52% | 1005.2 hPa | 0 mm | - | 277 W/m² | - |
| 1778070041 | 24.44° C | 51% | 1005.2 hPa | 0 mm | - | 311 W/m² | - |
| 1778067352 | 22.78° C | 56% | 1005.4 hPa | 0 mm | - | 299 W/m² | - |
| 1778065544 | 22.78° C | 58% | 1005.3 hPa | 0 mm | - | 530 W/m² | - |
| 1778064344 | 21.67° C | 58% | 1005.4 hPa | 0 mm | - | 255 W/m² | - |
| 1778062824 | 23.33° C | 55% | 1005.1 hPa | 0 mm | - | 493 W/m² | - |
| 1778060749 | 23.33° C | 53% | 1005.2 hPa | 0 mm | - | 646 W/m² | - |
| 1778057129 | 21.67° C | 59% | 1005 hPa | 0 mm | - | 597 W/m² | - |
| 1778056840 | 21.67° C | 58% | 1004.9 hPa | 0 mm | - | 586 W/m² | - |
| 1778055962 | 21.11° C | 60% | 1004.9 hPa | 0 mm | - | 530 W/m² | - |
| 1778054744 | 19.44° C | 65% | 1005.1 hPa | 0 mm | - | 304 W/m² | - |
| 1778054425 | 19.44° C | 65% | 1005.1 hPa | 0 mm | - | 207 W/m² | - |
| 1778052649 | 18.89° C | 67% | 1004.9 hPa | 0 mm | - | 239 W/m² | - |
| 1778052330 | 18.33° C | 67% | 1004.9 hPa | 0 mm | - | 241 W/m² | - |
| 1778051144 | 18.89° C | 66% | 1005 hPa | 0 mm | - | 204 W/m² | - |
| 1778050826 | 18.89° C | 65% | 1004.8 hPa | 0 mm | - | 309 W/m² | - |
| 1778049320 | 17.78° C | 67% | 1004.3 hPa | 0 mm | - | 224 W/m² | - |
| 1778049038 | 17.22° C | 69% | 1004.3 hPa | 0 mm | - | 235 W/m² | - |
| 1778048121 | 17.22° C | 68% | 1004.5 hPa | 0 mm | - | 108 W/m² | - |
| 1778047529 | 17.22° C | 68% | 1004.4 hPa | 0 mm | - | 245 W/m² | - |
| 1778047233 | 16.67° C | 70% | 1004.4 hPa | 0 mm | - | 175 W/m² | - |
| 1778046648 | 16.67° C | 70% | 1004.3 hPa | 0 mm | - | 111 W/m² | - |
| 1778046329 | 16.67° C | 70% | 1004.3 hPa | 0 mm | - | 99 W/m² | - |
| 1778044537 | 17.22° C | 68% | 1004.3 hPa | 0 mm | - | 105 W/m² | - |
* Rain latest hour (hover to see other rain measurements)
** Current wind speed in m/s (hover to see current wind gust speed)